sensor_id;sensor_type;location;lat;lon;timestamp;temperature;humidity
19090;DHT22;9677;50.656;13.064;2023-07-16T00:00:29;28.60;37.70
19090;DHT22;9677;50.656;13.064;2023-07-16T00:02:58;28.50;36.90
19090;DHT22;9677;50.656;13.064;2023-07-16T00:05:26;28.50;37.20
19090;DHT22;9677;50.656;13.064;2023-07-16T00:07:54;28.40;37.50
19090;DHT22;9677;50.656;13.064;2023-07-16T00:10:24;28.40;39.20
19090;DHT22;9677;50.656;13.064;2023-07-16T00:12:52;28.20;38.50
19090;DHT22;9677;50.656;13.064;2023-07-16T00:15:21;28.10;38.50
19090;DHT22;9677;50.656;13.064;2023-07-16T00:17:49;28.00;37.90
19090;DHT22;9677;50.656;13.064;2023-07-16T00:20:17;28.00;38.20
19090;DHT22;9677;50.656;13.064;2023-07-16T00:22:45;27.90;38.30
19090;DHT22;9677;50.656;13.064;2023-07-16T00:25:14;27.80;38.10
19090;DHT22;9677;50.656;13.064;2023-07-16T00:27:43;27.80;38.40
19090;DHT22;9677;50.656;13.064;2023-07-16T00:30:12;27.70;38.50
19090;DHT22;9677;50.656;13.064;2023-07-16T00:32:41;27.60;38.30
19090;DHT22;9677;50.656;13.064;2023-07-16T00:35:09;27.50;38.60
19090;DHT22;9677;50.656;13.064;2023-07-16T00:37:37;27.50;38.90
19090;DHT22;9677;50.656;13.064;2023-07-16T00:40:07;27.30;39.20
19090;DHT22;9677;50.656;13.064;2023-07-16T00:42:36;27.30;39.00
19090;DHT22;9677;50.656;13.064;2023-07-16T00:45:11;27.20;39.00
19090;DHT22;9677;50.656;13.064;2023-07-16T00:47:41;27.10;39.60
19090;DHT22;9677;50.656;13.064;2023-07-16T00:50:10;27.00;39.40
19090;DHT22;9677;50.656;13.064;2023-07-16T00:52:39;26.90;39.40
19090;DHT22;9677;50.656;13.064;2023-07-16T00:55:08;26.80;39.30
19090;DHT22;9677;50.656;13.064;2023-07-16T00:57:38;26.80;39.60
19090;DHT22;9677;50.656;13.064;2023-07-16T01:00:10;26.70;39.80
19090;DHT22;9677;50.656;13.064;2023-07-16T01:02:40;26.70;40.00
19090;DHT22;9677;50.656;13.064;2023-07-16T01:05:08;26.70;39.90
19090;DHT22;9677;50.656;13.064;2023-07-16T01:07:37;26.70;40.00
19090;DHT22;9677;50.656;13.064;2023-07-16T01:10:11;26.70;40.30
19090;DHT22;9677;50.656;13.064;2023-07-16T01:12:39;26.60;40.40
19090;DHT22;9677;50.656;13.064;2023-07-16T01:15:09;26.60;40.50
19090;DHT22;9677;50.656;13.064;2023-07-16T01:17:39;26.60;40.70
19090;DHT22;9677;50.656;13.064;2023-07-16T01:20:08;26.60;40.60
19090;DHT22;9677;50.656;13.064;2023-07-16T01:22:52;26.50;40.60
19090;DHT22;9677;50.656;13.064;2023-07-16T01:25:51;26.40;41.70
19090;DHT22;9677;50.656;13.064;2023-07-16T01:31:33;26.30;41.30
19090;DHT22;9677;50.656;13.064;2023-07-16T01:34:03;26.30;41.10
19090;DHT22;9677;50.656;13.064;2023-07-16T01:36:33;26.20;41.20
19090;DHT22;9677;50.656;13.064;2023-07-16T01:39:02;26.20;41.40
19090;DHT22;9677;50.656;13.064;2023-07-16T01:41:31;26.20;41.40
19090;DHT22;9677;50.656;13.064;2023-07-16T01:44:00;26.20;41.90
19090;DHT22;9677;50.656;13.064;2023-07-16T01:46:31;26.10;41.70
19090;DHT22;9677;50.656;13.064;2023-07-16T01:48:59;26.10;41.90
19090;DHT22;9677;50.656;13.064;2023-07-16T01:51:27;26.00;41.70
19090;DHT22;9677;50.656;13.064;2023-07-16T01:53:56;26.00;42.00
19090;DHT22;9677;50.656;13.064;2023-07-16T01:56:24;25.90;42.10
19090;DHT22;9677;50.656;13.064;2023-07-16T01:58:52;26.00;42.30
19090;DHT22;9677;50.656;13.064;2023-07-16T02:01:21;25.90;42.20
19090;DHT22;9677;50.656;13.064;2023-07-16T02:03:51;26.00;42.50
19090;DHT22;9677;50.656;13.064;2023-07-16T02:06:19;26.00;42.80
19090;DHT22;9677;50.656;13.064;2023-07-16T02:08:49;25.90;42.60
19090;DHT22;9677;50.656;13.064;2023-07-16T02:11:17;25.90;42.60
19090;DHT22;9677;50.656;13.064;2023-07-16T02:13:47;25.90;42.70
19090;DHT22;9677;50.656;13.064;2023-07-16T02:16:16;25.90;42.70
19090;DHT22;9677;50.656;13.064;2023-07-16T02:18:44;25.90;42.70
19090;DHT22;9677;50.656;13.064;2023-07-16T02:21:14;25.90;42.90
19090;DHT22;9677;50.656;13.064;2023-07-16T02:23:42;25.90;42.90
19090;DHT22;9677;50.656;13.064;2023-07-16T02:26:10;26.00;43.00
19090;DHT22;9677;50.656;13.064;2023-07-16T02:28:41;26.00;42.80
19090;DHT22;9677;50.656;13.064;2023-07-16T02:31:09;26.00;42.80
19090;DHT22;9677;50.656;13.064;2023-07-16T02:33:40;26.00;42.90
19090;DHT22;9677;50.656;13.064;2023-07-16T02:36:08;26.10;42.80
19090;DHT22;9677;50.656;13.064;2023-07-16T02:38:38;26.10;42.80
19090;DHT22;9677;50.656;13.064;2023-07-16T02:41:06;26.10;42.90
19090;DHT22;9677;50.656;13.064;2023-07-16T02:43:35;26.10;42.90
19090;DHT22;9677;50.656;13.064;2023-07-16T02:46:03;26.00;42.90
19090;DHT22;9677;50.656;13.064;2023-07-16T02:48:32;26.00;43.10
19090;DHT22;9677;50.656;13.064;2023-07-16T02:51:01;26.00;43.10
19090;DHT22;9677;50.656;13.064;2023-07-16T02:53:29;26.00;43.10
19090;DHT22;9677;50.656;13.064;2023-07-16T02:55:59;26.00;43.20
19090;DHT22;9677;50.656;13.064;2023-07-16T02:58:27;26.00;43.50
19090;DHT22;9677;50.656;13.064;2023-07-16T03:00:55;26.00;43.40
19090;DHT22;9677;50.656;13.064;2023-07-16T03:03:23;25.90;43.60
19090;DHT22;9677;50.656;13.064;2023-07-16T03:06:00;25.90;43.60
19090;DHT22;9677;50.656;13.064;2023-07-16T03:08:29;25.90;43.80
19090;DHT22;9677;50.656;13.064;2023-07-16T03:10:59;25.90;43.90
19090;DHT22;9677;50.656;13.064;2023-07-16T03:13:28;25.90;44.10
19090;DHT22;9677;50.656;13.064;2023-07-16T03:15:56;25.90;44.00
19090;DHT22;9677;50.656;13.064;2023-07-16T03:18:27;25.90;43.90
19090;DHT22;9677;50.656;13.064;2023-07-16T03:20:56;25.90;44.30
19090;DHT22;9677;50.656;13.064;2023-07-16T03:23:26;25.90;44.10
19090;DHT22;9677;50.656;13.064;2023-07-16T03:25:54;25.80;44.10
19090;DHT22;9677;50.656;13.064;2023-07-16T03:28:23;25.80;44.20
19090;DHT22;9677;50.656;13.064;2023-07-16T03:30:53;25.80;44.40
19090;DHT22;9677;50.656;13.064;2023-07-16T03:33:21;25.90;44.20
19090;DHT22;9677;50.656;13.064;2023-07-16T03:35:49;25.90;44.30
19090;DHT22;9677;50.656;13.064;2023-07-16T03:38:18;26.00;44.40
19090;DHT22;9677;50.656;13.064;2023-07-16T03:40:48;25.80;44.20
19090;DHT22;9677;50.656;13.064;2023-07-16T03:43:18;25.90;44.50
19090;DHT22;9677;50.656;13.064;2023-07-16T03:45:49;25.90;44.50
19090;DHT22;9677;50.656;13.064;2023-07-16T03:48:17;26.00;44.50
19090;DHT22;9677;50.656;13.064;2023-07-16T03:50:46;25.90;44.30
19090;DHT22;9677;50.656;13.064;2023-07-16T03:53:15;25.90;44.60
19090;DHT22;9677;50.656;13.064;2023-07-16T03:55:43;26.00;44.70
19090;DHT22;9677;50.656;13.064;2023-07-16T03:58:11;25.90;44.60
19090;DHT22;9677;50.656;13.064;2023-07-16T04:00:41;25.90;44.70
19090;DHT22;9677;50.656;13.064;2023-07-16T04:03:12;25.90;44.80
19090;DHT22;9677;50.656;13.064;2023-07-16T04:05:40;25.90;44.80
19090;DHT22;9677;50.656;13.064;2023-07-16T04:08:08;25.90;44.70
19090;DHT22;9677;50.656;13.064;2023-07-16T04:10:36;25.90;44.70
19090;DHT22;9677;50.656;13.064;2023-07-16T04:13:05;26.00;44.80
19090;DHT22;9677;50.656;13.064;2023-07-16T04:15:33;26.00;44.90
19090;DHT22;9677;50.656;13.064;2023-07-16T04:18:01;26.00;44.80
19090;DHT22;9677;50.656;13.064;2023-07-16T04:20:32;26.00;44.90
19090;DHT22;9677;50.656;13.064;2023-07-16T04:23:01;26.00;45.00
19090;DHT22;9677;50.656;13.064;2023-07-16T04:25:29;26.00;44.90
19090;DHT22;9677;50.656;13.064;2023-07-16T04:27:57;26.00;44.90
19090;DHT22;9677;50.656;13.064;2023-07-16T04:30:26;26.00;45.00
19090;DHT22;9677;50.656;13.064;2023-07-16T04:32:54;26.00;45.00
19090;DHT22;9677;50.656;13.064;2023-07-16T04:35:22;26.00;45.10
19090;DHT22;9677;50.656;13.064;2023-07-16T04:37:52;26.00;45.10
19090;DHT22;9677;50.656;13.064;2023-07-16T04:40:20;26.00;45.20
19090;DHT22;9677;50.656;13.064;2023-07-16T04:42:48;26.00;45.10
19090;DHT22;9677;50.656;13.064;2023-07-16T04:45:16;26.00;45.10
19090;DHT22;9677;50.656;13.064;2023-07-16T04:47:45;26.00;45.20
19090;DHT22;9677;50.656;13.064;2023-07-16T04:50:13;26.00;45.20
19090;DHT22;9677;50.656;13.064;2023-07-16T04:52:41;26.00;45.40
19090;DHT22;9677;50.656;13.064;2023-07-16T04:55:11;25.90;45.30
19090;DHT22;9677;50.656;13.064;2023-07-16T04:57:40;25.90;45.40
19090;DHT22;9677;50.656;13.064;2023-07-16T05:00:08;25.90;45.40
19090;DHT22;9677;50.656;13.064;2023-07-16T05:02:38;25.90;45.50
19090;DHT22;9677;50.656;13.064;2023-07-16T05:05:07;25.80;45.50
19090;DHT22;9677;50.656;13.064;2023-07-16T05:07:35;25.80;45.60
19090;DHT22;9677;50.656;13.064;2023-07-16T05:10:04;25.80;45.60
19090;DHT22;9677;50.656;13.064;2023-07-16T05:12:35;25.80;45.80
19090;DHT22;9677;50.656;13.064;2023-07-16T05:15:03;25.80;45.90
19090;DHT22;9677;50.656;13.064;2023-07-16T05:17:32;25.80;45.80
19090;DHT22;9677;50.656;13.064;2023-07-16T05:20:00;25.80;45.90
19090;DHT22;9677;50.656;13.064;2023-07-16T05:22:29;25.80;46.00
19090;DHT22;9677;50.656;13.064;2023-07-16T05:24:58;25.80;46.10
19090;DHT22;9677;50.656;13.064;2023-07-16T05:27:26;25.80;46.20
19090;DHT22;9677;50.656;13.064;2023-07-16T05:29:55;25.80;46.20
19090;DHT22;9677;50.656;13.064;2023-07-16T05:32:24;25.80;46.40
19090;DHT22;9677;50.656;13.064;2023-07-16T05:34:52;25.90;46.40
19090;DHT22;9677;50.656;13.064;2023-07-16T05:37:20;26.10;46.60
19090;DHT22;9677;50.656;13.064;2023-07-16T05:39:48;25.90;46.50
19090;DHT22;9677;50.656;13.064;2023-07-16T05:42:16;25.90;46.70
19090;DHT22;9677;50.656;13.064;2023-07-16T05:44:47;25.90;46.50
19090;DHT22;9677;50.656;13.064;2023-07-16T05:47:16;26.00;46.50
19090;DHT22;9677;50.656;13.064;2023-07-16T05:49:45;26.00;46.60
19090;DHT22;9677;50.656;13.064;2023-07-16T05:52:13;26.00;46.30
19090;DHT22;9677;50.656;13.064;2023-07-16T05:54:43;26.00;46.30
19090;DHT22;9677;50.656;13.064;2023-07-16T05:57:11;26.00;46.30
19090;DHT22;9677;50.656;13.064;2023-07-16T05:59:39;25.90;46.20
19090;DHT22;9677;50.656;13.064;2023-07-16T06:02:07;25.90;46.20
19090;DHT22;9677;50.656;13.064;2023-07-16T06:04:37;25.90;46.30
19090;DHT22;9677;50.656;13.064;2023-07-16T06:07:06;25.80;46.30
19090;DHT22;9677;50.656;13.064;2023-07-16T06:09:34;25.80;46.40
19090;DHT22;9677;50.656;13.064;2023-07-16T06:12:02;25.80;46.50
19090;DHT22;9677;50.656;13.064;2023-07-16T06:14:31;25.80;46.50
19090;DHT22;9677;50.656;13.064;2023-07-16T06:16:59;25.80;46.60
19090;DHT22;9677;50.656;13.064;2023-07-16T06:19:28;25.80;46.60
19090;DHT22;9677;50.656;13.064;2023-07-16T06:21:57;25.80;46.60
19090;DHT22;9677;50.656;13.064;2023-07-16T06:24:26;25.80;46.70
19090;DHT22;9677;50.656;13.064;2023-07-16T06:26:54;25.80;46.70
19090;DHT22;9677;50.656;13.064;2023-07-16T06:29:22;25.90;46.70
19090;DHT22;9677;50.656;13.064;2023-07-16T06:31:54;25.80;46.60
19090;DHT22;9677;50.656;13.064;2023-07-16T06:34:24;25.80;47.00
19090;DHT22;9677;50.656;13.064;2023-07-16T06:36:53;25.80;46.70
19090;DHT22;9677;50.656;13.064;2023-07-16T06:39:22;25.80;46.60
19090;DHT22;9677;50.656;13.064;2023-07-16T06:41:50;25.80;46.60
19090;DHT22;9677;50.656;13.064;2023-07-16T06:44:21;25.80;46.60
19090;DHT22;9677;50.656;13.064;2023-07-16T06:46:50;25.80;46.90
19090;DHT22;9677;50.656;13.064;2023-07-16T06:49:18;25.90;46.90
19090;DHT22;9677;50.656;13.064;2023-07-16T06:51:46;25.90;46.80
19090;DHT22;9677;50.656;13.064;2023-07-16T06:54:15;25.90;46.60
19090;DHT22;9677;50.656;13.064;2023-07-16T06:56:44;25.90;47.10
19090;DHT22;9677;50.656;13.064;2023-07-16T06:59:12;25.90;46.50
19090;DHT22;9677;50.656;13.064;2023-07-16T07:01:41;25.80;46.40
19090;DHT22;9677;50.656;13.064;2023-07-16T07:04:09;25.80;46.30
19090;DHT22;9677;50.656;13.064;2023-07-16T07:06:37;25.80;46.30
19090;DHT22;9677;50.656;13.064;2023-07-16T07:09:06;25.80;46.60
19090;DHT22;9677;50.656;13.064;2023-07-16T07:11:34;25.80;46.50
19090;DHT22;9677;50.656;13.064;2023-07-16T07:14:03;25.80;46.70
19090;DHT22;9677;50.656;13.064;2023-07-16T07:16:31;25.90;46.80
19090;DHT22;9677;50.656;13.064;2023-07-16T07:19:00;25.90;46.80
19090;DHT22;9677;50.656;13.064;2023-07-16T07:21:29;26.00;46.60
19090;DHT22;9677;50.656;13.064;2023-07-16T07:23:57;25.90;46.50
19090;DHT22;9677;50.656;13.064;2023-07-16T07:26:25;25.90;46.50
19090;DHT22;9677;50.656;13.064;2023-07-16T07:28:53;26.00;46.60
19090;DHT22;9677;50.656;13.064;2023-07-16T07:31:23;26.00;46.30
19090;DHT22;9677;50.656;13.064;2023-07-16T07:33:51;26.00;46.30
19090;DHT22;9677;50.656;13.064;2023-07-16T07:36:20;26.00;46.30
19090;DHT22;9677;50.656;13.064;2023-07-16T07:38:49;26.00;46.20
19090;DHT22;9677;50.656;13.064;2023-07-16T07:41:17;26.00;46.20
19090;DHT22;9677;50.656;13.064;2023-07-16T07:43:45;26.10;46.30
19090;DHT22;9677;50.656;13.064;2023-07-16T07:46:13;26.10;46.30
19090;DHT22;9677;50.656;13.064;2023-07-16T07:48:43;26.10;46.10
19090;DHT22;9677;50.656;13.064;2023-07-16T07:51:12;26.10;46.10
19090;DHT22;9677;50.656;13.064;2023-07-16T07:53:40;26.10;46.10
19090;DHT22;9677;50.656;13.064;2023-07-16T07:56:08;26.10;46.00
19090;DHT22;9677;50.656;13.064;2023-07-16T07:58:36;26.20;46.10
19090;DHT22;9677;50.656;13.064;2023-07-16T08:01:05;26.20;46.30
19090;DHT22;9677;50.656;13.064;2023-07-16T08:03:33;26.20;46.20
19090;DHT22;9677;50.656;13.064;2023-07-16T08:06:04;26.30;46.30
19090;DHT22;9677;50.656;13.064;2023-07-16T08:08:32;26.30;46.20
19090;DHT22;9677;50.656;13.064;2023-07-16T08:11:00;26.30;46.20
19090;DHT22;9677;50.656;13.064;2023-07-16T08:13:28;26.40;46.20
19090;DHT22;9677;50.656;13.064;2023-07-16T08:15:56;26.50;46.10
19090;DHT22;9677;50.656;13.064;2023-07-16T08:18:25;26.50;45.80
19090;DHT22;9677;50.656;13.064;2023-07-16T08:20:53;26.60;45.70
19090;DHT22;9677;50.656;13.064;2023-07-16T08:23:23;26.60;45.70
19090;DHT22;9677;50.656;13.064;2023-07-16T08:25:51;26.70;46.10
19090;DHT22;9677;50.656;13.064;2023-07-16T08:28:19;26.80;45.90
19090;DHT22;9677;50.656;13.064;2023-07-16T08:30:47;26.80;45.90
19090;DHT22;9677;50.656;13.064;2023-07-16T08:33:16;27.00;46.00
19090;DHT22;9677;50.656;13.064;2023-07-16T08:35:44;27.00;45.90
19090;DHT22;9677;50.656;13.064;2023-07-16T08:38:12;27.20;45.90
19090;DHT22;9677;50.656;13.064;2023-07-16T08:40:42;27.30;45.90
19090;DHT22;9677;50.656;13.064;2023-07-16T08:43:11;27.50;45.70
19090;DHT22;9677;50.656;13.064;2023-07-16T08:45:40;27.60;45.20
19090;DHT22;9677;50.656;13.064;2023-07-16T08:48:11;27.70;44.80
19090;DHT22;9677;50.656;13.064;2023-07-16T08:50:42;27.70;44.40
19090;DHT22;9677;50.656;13.064;2023-07-16T08:53:10;27.70;44.50
19090;DHT22;9677;50.656;13.064;2023-07-16T08:55:38;27.70;44.50
19090;DHT22;9677;50.656;13.064;2023-07-16T08:58:08;27.80;44.40
19090;DHT22;9677;50.656;13.064;2023-07-16T09:00:36;27.80;43.90
19090;DHT22;9677;50.656;13.064;2023-07-16T09:03:05;27.80;44.10
19090;DHT22;9677;50.656;13.064;2023-07-16T09:05:35;27.90;43.90
19090;DHT22;9677;50.656;13.064;2023-07-16T09:08:07;27.90;43.90
19090;DHT22;9677;50.656;13.064;2023-07-16T09:10:35;28.00;44.00
19090;DHT22;9677;50.656;13.064;2023-07-16T09:13:03;28.10;43.60
19090;DHT22;9677;50.656;13.064;2023-07-16T09:15:33;28.10;43.30
19090;DHT22;9677;50.656;13.064;2023-07-16T09:18:01;28.10;43.30
19090;DHT22;9677;50.656;13.064;2023-07-16T09:20:31;28.20;43.40
19090;DHT22;9677;50.656;13.064;2023-07-16T09:22:59;28.30;43.90
19090;DHT22;9677;50.656;13.064;2023-07-16T09:25:28;28.40;43.60
19090;DHT22;9677;50.656;13.064;2023-07-16T09:28:02;28.50;43.50
19090;DHT22;9677;50.656;13.064;2023-07-16T09:30:33;28.60;43.30
19090;DHT22;9677;50.656;13.064;2023-07-16T09:33:10;28.70;42.60
19090;DHT22;9677;50.656;13.064;2023-07-16T09:35:40;28.80;41.90
19090;DHT22;9677;50.656;13.064;2023-07-16T09:38:08;28.80;41.70
19090;DHT22;9677;50.656;13.064;2023-07-16T09:40:37;28.90;41.80
19090;DHT22;9677;50.656;13.064;2023-07-16T09:43:06;28.80;41.80
19090;DHT22;9677;50.656;13.064;2023-07-16T09:45:36;28.90;41.80
19090;DHT22;9677;50.656;13.064;2023-07-16T09:48:05;28.90;41.60
19090;DHT22;9677;50.656;13.064;2023-07-16T09:50:35;29.00;41.60
19090;DHT22;9677;50.656;13.064;2023-07-16T09:53:04;29.00;41.30
19090;DHT22;9677;50.656;13.064;2023-07-16T09:55:35;29.00;41.30
19090;DHT22;9677;50.656;13.064;2023-07-16T09:58:06;29.10;41.20
19090;DHT22;9677;50.656;13.064;2023-07-16T10:00:39;29.10;41.70
19090;DHT22;9677;50.656;13.064;2023-07-16T10:03:08;29.10;41.20
19090;DHT22;9677;50.656;13.064;2023-07-16T10:05:37;29.10;41.00
19090;DHT22;9677;50.656;13.064;2023-07-16T10:08:15;29.10;40.40
19090;DHT22;9677;50.656;13.064;2023-07-16T10:10:46;29.20;40.30
19090;DHT22;9677;50.656;13.064;2023-07-16T10:13:16;29.20;40.30
19090;DHT22;9677;50.656;13.064;2023-07-16T10:15:53;29.20;40.10
19090;DHT22;9677;50.656;13.064;2023-07-16T10:18:24;29.30;39.90
19090;DHT22;9677;50.656;13.064;2023-07-16T10:20:54;29.30;39.60
19090;DHT22;9677;50.656;13.064;2023-07-16T10:23:36;29.40;39.30
19090;DHT22;9677;50.656;13.064;2023-07-16T10:26:07;29.30;39.10
19090;DHT22;9677;50.656;13.064;2023-07-16T10:28:37;29.30;39.20
19090;DHT22;9677;50.656;13.064;2023-07-16T10:31:17;29.20;38.90
19090;DHT22;9677;50.656;13.064;2023-07-16T10:33:58;29.10;38.80
19090;DHT22;9677;50.656;13.064;2023-07-16T10:36:27;29.10;38.60
19090;DHT22;9677;50.656;13.064;2023-07-16T10:39:02;29.10;39.30
19090;DHT22;9677;50.656;13.064;2023-07-16T10:41:31;29.10;39.20
19090;DHT22;9677;50.656;13.064;2023-07-16T10:44:00;29.10;39.60
19090;DHT22;9677;50.656;13.064;2023-07-16T10:46:30;29.10;39.60
19090;DHT22;9677;50.656;13.064;2023-07-16T10:48:59;29.20;39.60
19090;DHT22;9677;50.656;13.064;2023-07-16T10:51:27;29.30;39.90
19090;DHT22;9677;50.656;13.064;2023-07-16T10:53:56;29.40;40.00
19090;DHT22;9677;50.656;13.064;2023-07-16T10:56:24;29.60;39.90
19090;DHT22;9677;50.656;13.064;2023-07-16T10:58:53;29.70;39.60
19090;DHT22;9677;50.656;13.064;2023-07-16T11:01:21;29.90;38.30
19090;DHT22;9677;50.656;13.064;2023-07-16T11:03:51;30.00;37.70
19090;DHT22;9677;50.656;13.064;2023-07-16T11:06:19;30.10;37.90
19090;DHT22;9677;50.656;13.064;2023-07-16T11:08:48;30.20;38.20
19090;DHT22;9677;50.656;13.064;2023-07-16T11:11:26;30.20;38.30
19090;DHT22;9677;50.656;13.064;2023-07-16T11:13:55;30.40;38.90
19090;DHT22;9677;50.656;13.064;2023-07-16T11:16:24;30.60;37.60
19090;DHT22;9677;50.656;13.064;2023-07-16T11:18:53;30.70;36.60
19090;DHT22;9677;50.656;13.064;2023-07-16T11:21:21;30.80;36.60
19090;DHT22;9677;50.656;13.064;2023-07-16T11:23:50;30.90;36.50
19090;DHT22;9677;50.656;13.064;2023-07-16T11:26:18;31.10;36.40
19090;DHT22;9677;50.656;13.064;2023-07-16T11:28:50;31.10;36.50
19090;DHT22;9677;50.656;13.064;2023-07-16T11:31:18;31.20;36.50
19090;DHT22;9677;50.656;13.064;2023-07-16T11:33:50;31.40;36.50
19090;DHT22;9677;50.656;13.064;2023-07-16T11:36:20;31.40;36.40
19090;DHT22;9677;50.656;13.064;2023-07-16T11:38:48;31.50;36.20
19090;DHT22;9677;50.656;13.064;2023-07-16T11:41:20;31.80;36.20
19090;DHT22;9677;50.656;13.064;2023-07-16T11:43:49;31.90;35.50
19090;DHT22;9677;50.656;13.064;2023-07-16T11:46:18;32.00;35.60
19090;DHT22;9677;50.656;13.064;2023-07-16T11:48:46;32.10;35.40
19090;DHT22;9677;50.656;13.064;2023-07-16T11:51:15;32.30;35.30
19090;DHT22;9677;50.656;13.064;2023-07-16T11:53:44;32.40;33.90
19090;DHT22;9677;50.656;13.064;2023-07-16T11:56:12;32.40;33.90
19090;DHT22;9677;50.656;13.064;2023-07-16T11:58:41;32.50;34.30
19090;DHT22;9677;50.656;13.064;2023-07-16T12:01:09;32.60;34.00
19090;DHT22;9677;50.656;13.064;2023-07-16T12:03:38;32.70;33.70
19090;DHT22;9677;50.656;13.064;2023-07-16T12:06:08;32.70;33.70
19090;DHT22;9677;50.656;13.064;2023-07-16T12:08:36;32.80;33.90
19090;DHT22;9677;50.656;13.064;2023-07-16T12:11:05;32.90;34.80
19090;DHT22;9677;50.656;13.064;2023-07-16T12:13:34;33.10;33.90
19090;DHT22;9677;50.656;13.064;2023-07-16T12:16:02;33.10;33.60
19090;DHT22;9677;50.656;13.064;2023-07-16T12:18:31;33.20;33.60
19090;DHT22;9677;50.656;13.064;2023-07-16T12:20:59;33.30;33.70
19090;DHT22;9677;50.656;13.064;2023-07-16T12:23:27;33.50;33.60
19090;DHT22;9677;50.656;13.064;2023-07-16T12:25:56;33.50;33.60
19090;DHT22;9677;50.656;13.064;2023-07-16T12:28:25;33.60;33.60
19090;DHT22;9677;50.656;13.064;2023-07-16T12:30:54;33.80;33.40
19090;DHT22;9677;50.656;13.064;2023-07-16T12:33:22;33.80;33.40
19090;DHT22;9677;50.656;13.064;2023-07-16T12:35:51;34.00;33.00
19090;DHT22;9677;50.656;13.064;2023-07-16T12:38:21;34.00;33.10
19090;DHT22;9677;50.656;13.064;2023-07-16T12:40:49;34.10;33.00
19090;DHT22;9677;50.656;13.064;2023-07-16T12:43:17;34.20;32.80
19090;DHT22;9677;50.656;13.064;2023-07-16T12:45:47;34.30;32.40
19090;DHT22;9677;50.656;13.064;2023-07-16T12:48:15;34.40;32.00
19090;DHT22;9677;50.656;13.064;2023-07-16T12:50:43;34.40;32.10
19090;DHT22;9677;50.656;13.064;2023-07-16T12:53:12;34.50;32.20
19090;DHT22;9677;50.656;13.064;2023-07-16T12:55:40;34.60;32.20
19090;DHT22;9677;50.656;13.064;2023-07-16T12:58:09;34.60;31.90
19090;DHT22;9677;50.656;13.064;2023-07-16T13:00:37;34.70;31.90
19090;DHT22;9677;50.656;13.064;2023-07-16T13:03:06;34.70;31.50
19090;DHT22;9677;50.656;13.064;2023-07-16T13:05:38;34.90;31.20
19090;DHT22;9677;50.656;13.064;2023-07-16T13:08:07;34.80;31.30
19090;DHT22;9677;50.656;13.064;2023-07-16T13:10:35;34.80;31.00
19090;DHT22;9677;50.656;13.064;2023-07-16T13:13:03;34.90;31.00
19090;DHT22;9677;50.656;13.064;2023-07-16T13:15:32;34.90;30.80
19090;DHT22;9677;50.656;13.064;2023-07-16T13:18:00;34.90;30.80
19090;DHT22;9677;50.656;13.064;2023-07-16T13:20:30;34.90;30.90
19090;DHT22;9677;50.656;13.064;2023-07-16T13:22:59;35.00;31.10
19090;DHT22;9677;50.656;13.064;2023-07-16T13:25:27;35.20;31.40
19090;DHT22;9677;50.656;13.064;2023-07-16T13:27:56;35.10;30.60
19090;DHT22;9677;50.656;13.064;2023-07-16T13:30:24;35.20;30.70
19090;DHT22;9677;50.656;13.064;2023-07-16T13:32:53;35.20;30.30
19090;DHT22;9677;50.656;13.064;2023-07-16T13:35:23;35.20;29.90
19090;DHT22;9677;50.656;13.064;2023-07-16T13:37:52;35.20;30.00
19090;DHT22;9677;50.656;13.064;2023-07-16T13:40:21;35.20;30.00
19090;DHT22;9677;50.656;13.064;2023-07-16T13:42:49;35.20;29.90
19090;DHT22;9677;50.656;13.064;2023-07-16T13:45:17;35.10;29.80
19090;DHT22;9677;50.656;13.064;2023-07-16T13:47:46;35.10;29.70
19090;DHT22;9677;50.656;13.064;2023-07-16T13:50:14;34.90;29.70
19090;DHT22;9677;50.656;13.064;2023-07-16T13:52:43;34.90;29.70
19090;DHT22;9677;50.656;13.064;2023-07-16T13:55:12;34.80;29.80
19090;DHT22;9677;50.656;13.064;2023-07-16T13:57:40;34.80;29.80
19090;DHT22;9677;50.656;13.064;2023-07-16T14:00:11;34.70;29.70
19090;DHT22;9677;50.656;13.064;2023-07-16T14:02:40;34.60;29.80
19090;DHT22;9677;50.656;13.064;2023-07-16T14:05:08;34.50;29.70
19090;DHT22;9677;50.656;13.064;2023-07-16T14:07:37;34.50;29.70
19090;DHT22;9677;50.656;13.064;2023-07-16T14:10:06;34.50;29.70
19090;DHT22;9677;50.656;13.064;2023-07-16T14:12:36;34.40;29.60
19090;DHT22;9677;50.656;13.064;2023-07-16T14:15:05;34.40;29.50
19090;DHT22;9677;50.656;13.064;2023-07-16T14:17:34;34.40;29.60
19090;DHT22;9677;50.656;13.064;2023-07-16T14:20:03;34.30;29.60
19090;DHT22;9677;50.656;13.064;2023-07-16T14:22:33;34.30;29.80
19090;DHT22;9677;50.656;13.064;2023-07-16T14:25:01;34.40;30.10
19090;DHT22;9677;50.656;13.064;2023-07-16T14:27:30;34.30;30.00
19090;DHT22;9677;50.656;13.064;2023-07-16T14:30:01;34.30;29.90
19090;DHT22;9677;50.656;13.064;2023-07-16T14:32:33;34.30;29.90
19090;DHT22;9677;50.656;13.064;2023-07-16T14:35:02;34.30;29.90
19090;DHT22;9677;50.656;13.064;2023-07-16T14:37:31;34.30;29.80
19090;DHT22;9677;50.656;13.064;2023-07-16T14:39:59;34.30;30.00
19090;DHT22;9677;50.656;13.064;2023-07-16T14:42:28;34.30;30.00
19090;DHT22;9677;50.656;13.064;2023-07-16T14:44:56;34.30;30.00
19090;DHT22;9677;50.656;13.064;2023-07-16T14:47:25;34.30;30.00
19090;DHT22;9677;50.656;13.064;2023-07-16T14:49:53;34.50;30.00
19090;DHT22;9677;50.656;13.064;2023-07-16T14:52:22;34.40;29.90
19090;DHT22;9677;50.656;13.064;2023-07-16T14:54:50;34.40;29.90
19090;DHT22;9677;50.656;13.064;2023-07-16T14:57:18;34.40;29.90
19090;DHT22;9677;50.656;13.064;2023-07-16T14:59:46;34.40;30.00
19090;DHT22;9677;50.656;13.064;2023-07-16T15:02:15;34.40;29.60
19090;DHT22;9677;50.656;13.064;2023-07-16T15:04:45;34.40;29.70
19090;DHT22;9677;50.656;13.064;2023-07-16T15:07:13;34.40;29.80
19090;DHT22;9677;50.656;13.064;2023-07-16T15:09:41;34.40;29.80
19090;DHT22;9677;50.656;13.064;2023-07-16T15:12:09;34.40;29.90
19090;DHT22;9677;50.656;13.064;2023-07-16T15:14:37;34.60;29.80
19090;DHT22;9677;50.656;13.064;2023-07-16T15:17:06;34.50;29.70
19090;DHT22;9677;50.656;13.064;2023-07-16T15:19:34;34.50;29.80
19090;DHT22;9677;50.656;13.064;2023-07-16T15:22:05;34.50;29.80
19090;DHT22;9677;50.656;13.064;2023-07-16T15:24:36;34.50;29.50
19090;DHT22;9677;50.656;13.064;2023-07-16T15:27:05;34.50;29.60
19090;DHT22;9677;50.656;13.064;2023-07-16T15:29:33;34.40;29.60
19090;DHT22;9677;50.656;13.064;2023-07-16T15:32:02;34.40;29.60
19090;DHT22;9677;50.656;13.064;2023-07-16T15:34:31;34.40;29.60
19090;DHT22;9677;50.656;13.064;2023-07-16T15:37:00;34.40;29.60
19090;DHT22;9677;50.656;13.064;2023-07-16T15:39:29;34.40;29.50
19090;DHT22;9677;50.656;13.064;2023-07-16T15:41:57;34.40;29.30
19090;DHT22;9677;50.656;13.064;2023-07-16T15:44:26;34.40;29.40